sensor_id;sensor_type;location;lat;lon;timestamp;P1;durP1;ratioP1;P2;durP2;ratioP2
18689;SDS011;9782;52.930;15.562;2022-09-20T00:00:38;31.43;;;18.27;;
18689;SDS011;9782;52.930;15.562;2022-09-20T00:03:07;31.97;;;18.50;;
18689;SDS011;9782;52.930;15.562;2022-09-20T00:05:36;33.27;;;18.93;;
18689;SDS011;9782;52.930;15.562;2022-09-20T00:08:05;32.77;;;18.80;;
18689;SDS011;9782;52.930;15.562;2022-09-20T00:10:34;32.07;;;18.43;;
18689;SDS011;9782;52.930;15.562;2022-09-20T00:13:03;32.47;;;18.63;;
18689;SDS011;9782;52.930;15.562;2022-09-20T00:15:32;33.50;;;18.97;;
18689;SDS011;9782;52.930;15.562;2022-09-20T00:17:59;33.17;;;18.83;;
18689;SDS011;9782;52.930;15.562;2022-09-20T00:20:28;33.50;;;19.03;;
18689;SDS011;9782;52.930;15.562;2022-09-20T00:22:55;32.27;;;18.57;;
18689;SDS011;9782;52.930;15.562;2022-09-20T00:25:22;33.37;;;18.87;;
18689;SDS011;9782;52.930;15.562;2022-09-20T00:27:49;33.63;;;18.93;;
18689;SDS011;9782;52.930;15.562;2022-09-20T00:30:16;32.70;;;18.63;;
18689;SDS011;9782;52.930;15.562;2022-09-20T00:32:43;33.63;;;18.90;;
18689;SDS011;9782;52.930;15.562;2022-09-20T00:35:10;34.83;;;19.47;;
18689;SDS011;9782;52.930;15.562;2022-09-20T00:37:39;33.03;;;18.63;;
18689;SDS011;9782;52.930;15.562;2022-09-20T00:40:08;32.03;;;18.50;;
18689;SDS011;9782;52.930;15.562;2022-09-20T00:42:37;34.37;;;19.20;;
18689;SDS011;9782;52.930;15.562;2022-09-20T00:45:06;34.23;;;19.17;;
18689;SDS011;9782;52.930;15.562;2022-09-20T00:47:36;33.77;;;18.83;;
18689;SDS011;9782;52.930;15.562;2022-09-20T00:52:41;35.33;;;19.40;;
18689;SDS011;9782;52.930;15.562;2022-09-20T00:55:10;35.53;;;19.57;;
18689;SDS011;9782;52.930;15.562;2022-09-20T00:57:39;36.30;;;19.77;;
18689;SDS011;9782;52.930;15.562;2022-09-20T01:00:08;35.13;;;19.37;;
18689;SDS011;9782;52.930;15.562;2022-09-20T01:02:38;33.50;;;18.83;;
18689;SDS011;9782;52.930;15.562;2022-09-20T01:05:08;32.70;;;18.73;;
18689;SDS011;9782;52.930;15.562;2022-09-20T01:07:36;24.60;;;16.47;;
18689;SDS011;9782;52.930;15.562;2022-09-20T01:10:05;24.97;;;16.60;;
18689;SDS011;9782;52.930;15.562;2022-09-20T01:12:33;28.10;;;17.50;;
18689;SDS011;9782;52.930;15.562;2022-09-20T01:15:04;30.67;;;18.10;;
18689;SDS011;9782;52.930;15.562;2022-09-20T01:17:34;29.63;;;17.70;;
18689;SDS011;9782;52.930;15.562;2022-09-20T01:20:10;30.90;;;18.23;;
18689;SDS011;9782;52.930;15.562;2022-09-20T01:22:45;29.37;;;17.70;;
18689;SDS011;9782;52.930;15.562;2022-09-20T01:25:24;29.73;;;17.87;;
18689;SDS011;9782;52.930;15.562;2022-09-20T01:28:11;26.60;;;16.93;;
18689;SDS011;9782;52.930;15.562;2022-09-20T01:30:39;29.97;;;17.77;;
18689;SDS011;9782;52.930;15.562;2022-09-20T01:33:11;30.73;;;18.10;;
18689;SDS011;9782;52.930;15.562;2022-09-20T01:35:44;29.07;;;17.63;;
18689;SDS011;9782;52.930;15.562;2022-09-20T01:38:21;29.33;;;17.63;;
18689;SDS011;9782;52.930;15.562;2022-09-20T01:40:58;30.13;;;17.80;;
18689;SDS011;9782;52.930;15.562;2022-09-20T01:43:34;30.47;;;18.10;;
18689;SDS011;9782;52.930;15.562;2022-09-20T01:46:07;27.80;;;17.20;;
18689;SDS011;9782;52.930;15.562;2022-09-20T01:48:45;25.30;;;16.47;;
18689;SDS011;9782;52.930;15.562;2022-09-20T01:57:17;31.10;;;18.10;;
18689;SDS011;9782;52.930;15.562;2022-09-20T02:00:11;30.97;;;18.07;;
18689;SDS011;9782;52.930;15.562;2022-09-20T02:11:44;29.27;;;17.77;;
18689;SDS011;9782;52.930;15.562;2022-09-20T02:14:33;28.03;;;17.27;;
18689;SDS011;9782;52.930;15.562;2022-09-20T02:17:11;30.23;;;17.97;;
18689;SDS011;9782;52.930;15.562;2022-09-20T02:19:46;30.47;;;18.10;;
18689;SDS011;9782;52.930;15.562;2022-09-20T02:22:43;29.30;;;17.70;;
18689;SDS011;9782;52.930;15.562;2022-09-20T02:25:28;29.53;;;17.73;;
18689;SDS011;9782;52.930;15.562;2022-09-20T02:28:10;30.03;;;17.90;;
18689;SDS011;9782;52.930;15.562;2022-09-20T02:30:46;30.43;;;18.03;;
18689;SDS011;9782;52.930;15.562;2022-09-20T02:36:29;29.73;;;17.97;;
18689;SDS011;9782;52.930;15.562;2022-09-20T02:39:07;30.30;;;18.10;;
18689;SDS011;9782;52.930;15.562;2022-09-20T02:41:52;30.23;;;18.03;;
18689;SDS011;9782;52.930;15.562;2022-09-20T02:44:34;29.83;;;17.80;;
18689;SDS011;9782;52.930;15.562;2022-09-20T02:47:16;28.27;;;17.30;;
18689;SDS011;9782;52.930;15.562;2022-09-20T02:49:55;28.00;;;17.20;;
18689;SDS011;9782;52.930;15.562;2022-09-20T02:52:31;30.67;;;18.10;;
18689;SDS011;9782;52.930;15.562;2022-09-20T02:55:09;30.27;;;18.03;;
18689;SDS011;9782;52.930;15.562;2022-09-20T02:57:43;29.13;;;17.67;;
18689;SDS011;9782;52.930;15.562;2022-09-20T03:00:18;29.57;;;17.80;;
18689;SDS011;9782;52.930;15.562;2022-09-20T03:02:53;29.17;;;17.83;;
18689;SDS011;9782;52.930;15.562;2022-09-20T03:05:31;27.63;;;17.27;;
18689;SDS011;9782;52.930;15.562;2022-09-20T03:08:13;27.80;;;17.23;;
18689;SDS011;9782;52.930;15.562;2022-09-20T03:10:50;27.87;;;17.20;;
18689;SDS011;9782;52.930;15.562;2022-09-20T03:13:28;27.07;;;17.10;;
18689;SDS011;9782;52.930;15.562;2022-09-20T03:16:06;30.47;;;17.90;;
18689;SDS011;9782;52.930;15.562;2022-09-20T03:18:41;39.33;;;20.53;;
18689;SDS011;9782;52.930;15.562;2022-09-20T03:24:32;26.40;;;16.90;;
18689;SDS011;9782;52.930;15.562;2022-09-20T03:27:08;37.33;;;20.20;;
18689;SDS011;9782;52.930;15.562;2022-09-20T03:29:48;38.67;;;20.37;;
18689;SDS011;9782;52.930;15.562;2022-09-20T03:32:30;40.27;;;21.07;;
18689;SDS011;9782;52.930;15.562;2022-09-20T03:35:14;40.37;;;21.03;;
18689;SDS011;9782;52.930;15.562;2022-09-20T03:37:52;42.17;;;21.50;;
18689;SDS011;9782;52.930;15.562;2022-09-20T03:40:50;44.37;;;22.07;;
18689;SDS011;9782;52.930;15.562;2022-09-20T03:43:46;44.43;;;22.13;;
18689;SDS011;9782;52.930;15.562;2022-09-20T03:46:25;45.80;;;22.47;;
18689;SDS011;9782;52.930;15.562;2022-09-20T03:51:58;46.70;;;22.63;;
18689;SDS011;9782;52.930;15.562;2022-09-20T03:54:38;43.70;;;21.83;;
18689;SDS011;9782;52.930;15.562;2022-09-20T03:57:36;44.27;;;22.03;;
18689;SDS011;9782;52.930;15.562;2022-09-20T04:00:18;45.07;;;22.27;;
18689;SDS011;9782;52.930;15.562;2022-09-20T04:05:56;43.93;;;21.93;;
18689;SDS011;9782;52.930;15.562;2022-09-20T04:08:49;43.93;;;21.80;;
18689;SDS011;9782;52.930;15.562;2022-09-20T04:11:27;45.53;;;22.30;;
18689;SDS011;9782;52.930;15.562;2022-09-20T04:14:08;45.63;;;22.43;;
18689;SDS011;9782;52.930;15.562;2022-09-20T04:16:44;44.93;;;22.03;;
18689;SDS011;9782;52.930;15.562;2022-09-20T04:19:22;44.90;;;22.23;;
18689;SDS011;9782;52.930;15.562;2022-09-20T04:21:54;44.50;;;21.90;;
18689;SDS011;9782;52.930;15.562;2022-09-20T04:24:34;45.20;;;22.17;;
18689;SDS011;9782;52.930;15.562;2022-09-20T04:27:08;45.10;;;22.13;;
18689;SDS011;9782;52.930;15.562;2022-09-20T04:29:43;54.50;;;24.13;;
18689;SDS011;9782;52.930;15.562;2022-09-20T04:32:18;59.00;;;25.08;;
18689;SDS011;9782;52.930;15.562;2022-09-20T04:34:52;30.83;;;18.03;;
18689;SDS011;9782;52.930;15.562;2022-09-20T04:37:42;31.20;;;18.10;;
18689;SDS011;9782;52.930;15.562;2022-09-20T04:40:14;61.85;;;25.45;;
18689;SDS011;9782;52.930;15.562;2022-09-20T04:49:01;43.03;;;21.53;;
18689;SDS011;9782;52.930;15.562;2022-09-20T04:52:01;42.40;;;21.33;;
18689;SDS011;9782;52.930;15.562;2022-09-20T04:58:23;42.00;;;21.13;;
18689;SDS011;9782;52.930;15.562;2022-09-20T05:01:23;42.17;;;21.33;;
18689;SDS011;9782;52.930;15.562;2022-09-20T05:04:31;44.20;;;21.87;;
18689;SDS011;9782;52.930;15.562;2022-09-20T05:07:44;43.33;;;21.87;;
18689;SDS011;9782;52.930;15.562;2022-09-20T05:14:02;40.57;;;21.07;;
18689;SDS011;9782;52.930;15.562;2022-09-20T05:16:54;39.90;;;20.70;;
18689;SDS011;9782;52.930;15.562;2022-09-20T05:20:07;40.77;;;21.00;;
18689;SDS011;9782;52.930;15.562;2022-09-20T05:23:31;42.90;;;21.67;;
18689;SDS011;9782;52.930;15.562;2022-09-20T05:26:16;44.10;;;21.80;;
18689;SDS011;9782;52.930;15.562;2022-09-20T05:29:49;46.40;;;22.47;;
18689;SDS011;9782;52.930;15.562;2022-09-20T05:32:54;43.33;;;21.70;;
18689;SDS011;9782;52.930;15.562;2022-09-20T05:35:23;47.77;;;22.90;;
18689;SDS011;9782;52.930;15.562;2022-09-20T05:37:59;46.50;;;22.47;;
18689;SDS011;9782;52.930;15.562;2022-09-20T05:40:32;44.87;;;22.17;;
18689;SDS011;9782;52.930;15.562;2022-09-20T05:47:05;44.57;;;22.00;;
18689;SDS011;9782;52.930;15.562;2022-09-20T05:49:34;44.57;;;22.03;;
18689;SDS011;9782;52.930;15.562;2022-09-20T05:52:17;44.73;;;22.07;;
18689;SDS011;9782;52.930;15.562;2022-09-20T05:58:27;44.47;;;22.03;;
18689;SDS011;9782;52.930;15.562;2022-09-20T06:01:14;43.13;;;21.77;;
18689;SDS011;9782;52.930;15.562;2022-09-20T06:04:12;44.83;;;22.00;;
18689;SDS011;9782;52.930;15.562;2022-09-20T06:07:06;25.75;;;16.88;;
18689;SDS011;9782;52.930;15.562;2022-09-20T06:09:55;26.42;;;17.25;;
18689;SDS011;9782;52.930;15.562;2022-09-20T06:12:51;24.38;;;16.55;;
18689;SDS011;9782;52.930;15.562;2022-09-20T06:15:54;24.63;;;16.88;;
18689;SDS011;9782;52.930;15.562;2022-09-20T06:18:25;31.23;;;19.25;;
18689;SDS011;9782;52.930;15.562;2022-09-20T06:20:59;34.35;;;20.35;;
18689;SDS011;9782;52.930;15.562;2022-09-20T06:34:32;12.57;;;11.43;;
18689;SDS011;9782;52.930;15.562;2022-09-20T07:15:04;56.65;;;26.85;;
18689;SDS011;9782;52.930;15.562;2022-09-20T07:18:51;60.90;;;27.58;;
18689;SDS011;9782;52.930;15.562;2022-09-20T07:21:07;51.88;;;25.92;;
18689;SDS011;9782;52.930;15.562;2022-09-20T07:26:45;57.85;;;27.20;;
18689;SDS011;9782;52.930;15.562;2022-09-20T07:29:21;78.10;;;29.73;;
18689;SDS011;9782;52.930;15.562;2022-09-20T07:31:48;82.45;;;29.80;;
18689;SDS011;9782;52.930;15.562;2022-09-20T07:34:15;80.10;;;29.85;;
18689;SDS011;9782;52.930;15.562;2022-09-20T07:36:46;83.18;;;30.20;;
18689;SDS011;9782;52.930;15.562;2022-09-20T07:41:59;82.47;;;30.15;;
18689;SDS011;9782;52.930;15.562;2022-09-20T07:42:58;80.53;;;29.70;;
18689;SDS011;9782;52.930;15.562;2022-09-20T07:45:27;80.15;;;29.80;;
18689;SDS011;9782;52.930;15.562;2022-09-20T07:47:55;79.03;;;29.50;;
18689;SDS011;9782;52.930;15.562;2022-09-20T07:50:25;81.53;;;29.88;;
18689;SDS011;9782;52.930;15.562;2022-09-20T07:53:01;82.55;;;30.23;;
18689;SDS011;9782;52.930;15.562;2022-09-20T07:55:29;82.55;;;30.15;;
18689;SDS011;9782;52.930;15.562;2022-09-20T07:57:58;82.45;;;30.23;;
18689;SDS011;9782;52.930;15.562;2022-09-20T08:00:27;80.28;;;30.10;;
18689;SDS011;9782;52.930;15.562;2022-09-20T08:05:25;66.38;;;28.40;;
18689;SDS011;9782;52.930;15.562;2022-09-20T08:07:52;67.95;;;28.27;;
18689;SDS011;9782;52.930;15.562;2022-09-20T08:10:21;68.53;;;28.42;;
18689;SDS011;9782;52.930;15.562;2022-09-20T08:12:49;68.05;;;28.23;;
18689;SDS011;9782;52.930;15.562;2022-09-20T08:15:25;68.50;;;28.50;;
18689;SDS011;9782;52.930;15.562;2022-09-20T08:20:38;73.72;;;29.02;;
18689;SDS011;9782;52.930;15.562;2022-09-20T08:23:05;74.45;;;29.00;;
18689;SDS011;9782;52.930;15.562;2022-09-20T08:25:44;75.55;;;29.00;;
18689;SDS011;9782;52.930;15.562;2022-09-20T08:28:16;73.70;;;29.13;;
18689;SDS011;9782;52.930;15.562;2022-09-20T08:30:48;73.75;;;29.17;;
18689;SDS011;9782;52.930;15.562;2022-09-20T08:33:16;71.45;;;28.98;;
18689;SDS011;9782;52.930;15.562;2022-09-20T08:35:46;73.55;;;28.75;;
18689;SDS011;9782;52.930;15.562;2022-09-20T08:38:14;74.78;;;29.15;;
18689;SDS011;9782;52.930;15.562;2022-09-20T08:41:13;75.75;;;29.15;;
18689;SDS011;9782;52.930;15.562;2022-09-20T08:43:50;78.93;;;29.85;;
18689;SDS011;9782;52.930;15.562;2022-09-20T08:49:14;84.28;;;30.13;;
18689;SDS011;9782;52.930;15.562;2022-09-20T08:52:16;84.82;;;30.42;;
18689;SDS011;9782;52.930;15.562;2022-09-20T08:54:56;86.00;;;30.55;;
18689;SDS011;9782;52.930;15.562;2022-09-20T09:00:13;82.68;;;30.08;;
18689;SDS011;9782;52.930;15.562;2022-09-20T09:03:09;78.05;;;29.10;;
18689;SDS011;9782;52.930;15.562;2022-09-20T09:06:00;79.15;;;29.02;;
18689;SDS011;9782;52.930;15.562;2022-09-20T09:09:46;79.20;;;29.02;;
18689;SDS011;9782;52.930;15.562;2022-09-20T09:11:59;79.57;;;29.13;;
18689;SDS011;9782;52.930;15.562;2022-09-20T09:14:34;81.72;;;29.23;;
18689;SDS011;9782;52.930;15.562;2022-09-20T09:17:22;81.70;;;29.48;;
18689;SDS011;9782;52.930;15.562;2022-09-20T09:20:22;78.63;;;29.38;;
18689;SDS011;9782;52.930;15.562;2022-09-20T09:25:27;95.30;;;30.88;;
18689;SDS011;9782;52.930;15.562;2022-09-20T09:33:20;99.53;;;31.73;;
18689;SDS011;9782;52.930;15.562;2022-09-20T09:36:14;98.47;;;31.67;;
18689;SDS011;9782;52.930;15.562;2022-09-20T09:41:19;49.00;;;24.83;;
18689;SDS011;9782;52.930;15.562;2022-09-20T09:44:08;26.48;;;19.00;;
18689;SDS011;9782;52.930;15.562;2022-09-20T09:47:02;22.50;;;17.45;;
18689;SDS011;9782;52.930;15.562;2022-09-20T09:49:29;26.80;;;19.00;;
18689;SDS011;9782;52.930;15.562;2022-09-20T09:52:09;25.42;;;18.52;;
18689;SDS011;9782;52.930;15.562;2022-09-20T09:57:43;21.23;;;16.85;;
18689;SDS011;9782;52.930;15.562;2022-09-20T10:00:21;23.83;;;17.83;;
18689;SDS011;9782;52.930;15.562;2022-09-20T10:03:12;26.15;;;18.70;;
18689;SDS011;9782;52.930;15.562;2022-09-20T10:06:00;32.25;;;20.17;;
18689;SDS011;9782;52.930;15.562;2022-09-20T10:08:44;19.00;;;15.77;;
18689;SDS011;9782;52.930;15.562;2022-09-20T10:11:29;11.07;;;10.20;;
18689;SDS011;9782;52.930;15.562;2022-09-20T10:14:06;12.07;;;11.07;;
18689;SDS011;9782;52.930;15.562;2022-09-20T10:16:48;12.05;;;11.02;;
18689;SDS011;9782;52.930;15.562;2022-09-20T10:22:22;17.17;;;14.63;;
18689;SDS011;9782;52.930;15.562;2022-09-20T10:25:00;16.55;;;14.60;;
18689;SDS011;9782;52.930;15.562;2022-09-20T10:27:37;19.25;;;15.88;;
18689;SDS011;9782;52.930;15.562;2022-09-20T10:30:14;18.80;;;15.68;;
18689;SDS011;9782;52.930;15.562;2022-09-20T10:32:54;18.00;;;15.15;;
18689;SDS011;9782;52.930;15.562;2022-09-20T10:35:29;18.77;;;15.70;;
18689;SDS011;9782;52.930;15.562;2022-09-20T10:38:14;19.80;;;15.95;;
18689;SDS011;9782;52.930;15.562;2022-09-20T10:41:02;19.55;;;15.63;;
18689;SDS011;9782;52.930;15.562;2022-09-20T10:43:58;13.48;;;12.23;;
18689;SDS011;9782;52.930;15.562;2022-09-20T10:46:39;13.02;;;11.82;;
18689;SDS011;9782;52.930;15.562;2022-09-20T10:49:27;14.18;;;12.80;;
18689;SDS011;9782;52.930;15.562;2022-09-20T10:52:15;13.90;;;12.55;;
18689;SDS011;9782;52.930;15.562;2022-09-20T10:58:07;13.82;;;12.48;;
18689;SDS011;9782;52.930;15.562;2022-09-20T11:00:59;14.05;;;12.68;;
18689;SDS011;9782;52.930;15.562;2022-09-20T11:03:37;14.50;;;13.07;;
18689;SDS011;9782;52.930;15.562;2022-09-20T11:06:23;14.25;;;12.85;;
18689;SDS011;9782;52.930;15.562;2022-09-20T11:09:03;14.20;;;12.80;;
18689;SDS011;9782;52.930;15.562;2022-09-20T11:11:34;14.90;;;13.40;;
18689;SDS011;9782;52.930;15.562;2022-09-20T11:14:05;14.57;;;13.13;;
18689;SDS011;9782;52.930;15.562;2022-09-20T11:16:37;14.27;;;12.88;;
18689;SDS011;9782;52.930;15.562;2022-09-20T11:19:14;14.15;;;12.75;;
18689;SDS011;9782;52.930;15.562;2022-09-20T11:21:53;13.80;;;12.48;;
18689;SDS011;9782;52.930;15.562;2022-09-20T11:25:00;13.68;;;12.38;;
18689;SDS011;9782;52.930;15.562;2022-09-20T11:27:33;14.40;;;12.98;;
18689;SDS011;9782;52.930;15.562;2022-09-20T11:30:12;14.50;;;13.05;;
18689;SDS011;9782;52.930;15.562;2022-09-20T11:32:42;14.75;;;13.25;;
18689;SDS011;9782;52.930;15.562;2022-09-20T11:35:19;14.65;;;13.15;;
18689;SDS011;9782;52.930;15.562;2022-09-20T11:37:56;14.73;;;13.23;;
18689;SDS011;9782;52.930;15.562;2022-09-20T11:40:33;15.15;;;13.55;;
18689;SDS011;9782;52.930;15.562;2022-09-20T11:45:58;15.02;;;13.43;;
18689;SDS011;9782;52.930;15.562;2022-09-20T11:48:30;15.20;;;13.60;;
18689;SDS011;9782;52.930;15.562;2022-09-20T11:54:08;14.80;;;13.27;;
18689;SDS011;9782;52.930;15.562;2022-09-20T11:59:50;14.43;;;12.95;;
18689;SDS011;9782;52.930;15.562;2022-09-20T12:02:22;14.50;;;13.00;;
18689;SDS011;9782;52.930;15.562;2022-09-20T12:04:55;14.88;;;13.35;;
18689;SDS011;9782;52.930;15.562;2022-09-20T12:07:23;14.85;;;13.32;;
18689;SDS011;9782;52.930;15.562;2022-09-20T12:09:54;14.18;;;12.75;;
18689;SDS011;9782;52.930;15.562;2022-09-20T12:15:28;14.35;;;12.90;;
18689;SDS011;9782;52.930;15.562;2022-09-20T12:18:03;14.52;;;13.05;;
18689;SDS011;9782;52.930;15.562;2022-09-20T12:26:43;15.02;;;13.48;;
18689;SDS011;9782;52.930;15.562;2022-09-20T12:32:39;15.00;;;13.43;;
18689;SDS011;9782;52.930;15.562;2022-09-20T12:38:26;16.13;;;14.20;;
18689;SDS011;9782;52.930;15.562;2022-09-20T12:41:10;14.55;;;13.07;;
18689;SDS011;9782;52.930;15.562;2022-09-20T12:43:58;15.38;;;13.75;;
18689;SDS011;9782;52.930;15.562;2022-09-20T12:47:22;14.02;;;12.68;;
18689;SDS011;9782;52.930;15.562;2022-09-20T12:50:12;14.05;;;12.70;;
18689;SDS011;9782;52.930;15.562;2022-09-20T12:53:13;13.95;;;12.63;;
18689;SDS011;9782;52.930;15.562;2022-09-20T12:55:42;13.70;;;12.40;;
18689;SDS011;9782;52.930;15.562;2022-09-20T12:58:23;13.90;;;12.57;;
18689;SDS011;9782;52.930;15.562;2022-09-20T13:15:54;15.93;;;14.10;;
18689;SDS011;9782;52.930;15.562;2022-09-20T13:25:42;15.88;;;13.95;;
18689;SDS011;9782;52.930;15.562;2022-09-20T13:28:15;15.27;;;13.65;;
18689;SDS011;9782;52.930;15.562;2022-09-20T13:36:46;15.38;;;13.73;;
18689;SDS011;9782;52.930;15.562;2022-09-20T13:38:00;15.18;;;13.57;;
18689;SDS011;9782;52.930;15.562;2022-09-20T13:40:36;14.68;;;13.18;;
18689;SDS011;9782;52.930;15.562;2022-09-20T13:43:25;14.63;;;13.13;;
18689;SDS011;9782;52.930;15.562;2022-09-20T13:45:55;12.80;;;11.68;;
18689;SDS011;9782;52.930;15.562;2022-09-20T13:48:24;12.90;;;11.73;;
18689;SDS011;9782;52.930;15.562;2022-09-20T13:50:51;12.70;;;11.60;;
18689;SDS011;9782;52.930;15.562;2022-09-20T13:53:20;11.73;;;10.82;;
18689;SDS011;9782;52.930;15.562;2022-09-20T13:55:49;10.90;;;10.10;;
18689;SDS011;9782;52.930;15.562;2022-09-20T13:58:17;12.13;;;11.13;;
18689;SDS011;9782;52.930;15.562;2022-09-20T14:00:49;11.23;;;10.32;;
18689;SDS011;9782;52.930;15.562;2022-09-20T14:03:25;12.32;;;11.27;;
18689;SDS011;9782;52.930;15.562;2022-09-20T14:16:17;12.07;;;11.07;;
18689;SDS011;9782;52.930;15.562;2022-09-20T14:19:26;13.10;;;11.93;;
18689;SDS011;9782;52.930;15.562;2022-09-20T14:22:28;12.60;;;11.50;;
18689;SDS011;9782;52.930;15.562;2022-09-20T14:25:34;11.68;;;10.73;;
18689;SDS011;9782;52.930;15.562;2022-09-20T14:28:35;11.20;;;10.30;;
18689;SDS011;9782;52.930;15.562;2022-09-20T14:31:06;11.20;;;10.40;;
18689;SDS011;9782;52.930;15.562;2022-09-20T14:33:36;11.95;;;10.98;;
18689;SDS011;9782;52.930;15.562;2022-09-20T14:36:11;13.07;;;11.93;;
18689;SDS011;9782;52.930;15.562;2022-09-20T14:38:41;13.20;;;11.98;;
18689;SDS011;9782;52.930;15.562;2022-09-20T14:41:09;13.38;;;12.15;;
18689;SDS011;9782;52.930;15.562;2022-09-20T14:46:31;12.65;;;11.50;;
18689;SDS011;9782;52.930;15.562;2022-09-20T14:49:20;13.32;;;12.07;;
18689;SDS011;9782;52.930;15.562;2022-09-20T14:55:14;13.10;;;11.88;;
18689;SDS011;9782;52.930;15.562;2022-09-20T14:57:44;12.93;;;11.75;;
18689;SDS011;9782;52.930;15.562;2022-09-20T15:00:15;13.43;;;12.15;;
18689;SDS011;9782;52.930;15.562;2022-09-20T15:02:44;14.20;;;12.82;;
18689;SDS011;9782;52.930;15.562;2022-09-20T15:05:19;14.27;;;12.85;;
18689;SDS011;9782;52.930;15.562;2022-09-20T15:07:50;14.40;;;12.95;;
18689;SDS011;9782;52.930;15.562;2022-09-20T15:10:17;14.35;;;12.85;;
18689;SDS011;9782;52.930;15.562;2022-09-20T15:12:47;14.70;;;13.15;;
18689;SDS011;9782;52.930;15.562;2022-09-20T15:15:16;15.07;;;13.43;;
18689;SDS011;9782;52.930;15.562;2022-09-20T15:17:51;15.23;;;13.55;;
18689;SDS011;9782;52.930;15.562;2022-09-20T15:20:33;15.48;;;13.73;;
18689;SDS011;9782;52.930;15.562;2022-09-20T15:23:03;16.30;;;14.05;;
18689;SDS011;9782;52.930;15.562;2022-09-20T15:25:34;16.17;;;14.07;;
18689;SDS011;9782;52.930;15.562;2022-09-20T15:28:11;15.88;;;13.95;;
18689;SDS011;9782;52.930;15.562;2022-09-20T15:30:46;16.73;;;14.23;;
18689;SDS011;9782;52.930;15.562;2022-09-20T15:33:28;16.63;;;14.20;;
18689;SDS011;9782;52.930;15.562;2022-09-20T15:35:56;16.65;;;14.07;;
18689;SDS011;9782;52.930;15.562;2022-09-20T15:38:33;17.75;;;14.60;;
18689;SDS011;9782;52.930;15.562;2022-09-20T15:41:03;15.25;;;13.63;;
18689;SDS011;9782;52.930;15.562;2022-09-20T15:44:07;15.40;;;13.55;;
18689;SDS011;9782;52.930;15.562;2022-09-20T15:47:10;17.25;;;14.40;;
18689;SDS011;9782;52.930;15.562;2022-09-20T15:49:37;15.68;;;13.93;;
18689;SDS011;9782;52.930;15.562;2022-09-20T15:52:07;13.50;;;12.25;;
18689;SDS011;9782;52.930;15.562;2022-09-20T15:54:35;16.23;;;13.93;;
18689;SDS011;9782;52.930;15.562;2022-09-20T15:57:02;19.92;;;15.38;;
18689;SDS011;9782;52.930;15.562;2022-09-20T15:59:36;19.63;;;15.25;;
18689;SDS011;9782;52.930;15.562;2022-09-20T16:02:03;20.05;;;15.38;;
18689;SDS011;9782;52.930;15.562;2022-09-20T16:04:32;21.45;;;15.90;;
18689;SDS011;9782;52.930;15.562;2022-09-20T16:07:00;19.50;;;15.18;;
18689;SDS011;9782;52.930;15.562;2022-09-20T16:09:29;23.02;;;16.55;;
18689;SDS011;9782;52.930;15.562;2022-09-20T16:11:56;29.20;;;18.55;;
18689;SDS011;9782;52.930;15.562;2022-09-20T16:14:24;29.92;;;18.75;;
18689;SDS011;9782;52.930;15.562;2022-09-20T16:16:51;31.58;;;19.33;;
18689;SDS011;9782;52.930;15.562;2022-09-20T16:19:18;33.00;;;19.70;;
18689;SDS011;9782;52.930;15.562;2022-09-20T16:21:46;35.90;;;20.55;;
18689;SDS011;9782;52.930;15.562;2022-09-20T16:24:15;37.58;;;21.00;;
18689;SDS011;9782;52.930;15.562;2022-09-20T16:26:42;35.75;;;20.42;;
18689;SDS011;9782;52.930;15.562;2022-09-20T16:29:09;33.88;;;19.92;;
18689;SDS011;9782;52.930;15.562;2022-09-20T16:31:38;34.13;;;20.13;;
18689;SDS011;9782;52.930;15.562;2022-09-20T16:34:08;34.80;;;20.15;;
18689;SDS011;9782;52.930;15.562;2022-09-20T16:36:41;35.05;;;20.38;;
18689;SDS011;9782;52.930;15.562;2022-09-20T16:39:11;35.38;;;20.40;;
18689;SDS011;9782;52.930;15.562;2022-09-20T16:41:39;34.50;;;20.27;;
18689;SDS011;9782;52.930;15.562;2022-09-20T16:44:06;32.22;;;19.38;;
18689;SDS011;9782;52.930;15.562;2022-09-20T16:46:34;32.22;;;19.50;;
18689;SDS011;9782;52.930;15.562;2022-09-20T16:49:13;30.38;;;18.80;;
18689;SDS011;9782;52.930;15.562;2022-09-20T16:52:04;28.90;;;18.42;;
18689;SDS011;9782;52.930;15.562;2022-09-20T16:58:33;25.45;;;17.25;;
18689;SDS011;9782;52.930;15.562;2022-09-20T17:01:01;23.80;;;16.45;;
18689;SDS011;9782;52.930;15.562;2022-09-20T17:03:29;20.73;;;15.63;;
18689;SDS011;9782;52.930;15.562;2022-09-20T17:05:59;18.40;;;14.82;;
18689;SDS011;9782;52.930;15.562;2022-09-20T17:08:27;12.88;;;11.70;;
18689;SDS011;9782;52.930;15.562;2022-09-20T17:10:57;16.63;;;13.90;;
18689;SDS011;9782;52.930;15.562;2022-09-20T17:13:25;20.45;;;15.30;;
18689;SDS011;9782;52.930;15.562;2022-09-20T17:16:01;23.58;;;16.50;;
18689;SDS011;9782;52.930;15.562;2022-09-20T17:18:29;24.52;;;16.80;;
18689;SDS011;9782;52.930;15.562;2022-09-20T17:21:01;23.85;;;16.60;;
18689;SDS011;9782;52.930;15.562;2022-09-20T17:23:29;24.60;;;16.83;;
18689;SDS011;9782;52.930;15.562;2022-09-20T17:26:01;23.27;;;16.33;;
18689;SDS011;9782;52.930;15.562;2022-09-20T17:28:34;19.60;;;15.00;;
18689;SDS011;9782;52.930;15.562;2022-09-20T17:31:04;21.85;;;15.85;;
18689;SDS011;9782;52.930;15.562;2022-09-20T17:33:33;20.85;;;15.50;;
18689;SDS011;9782;52.930;15.562;2022-09-20T17:36:02;18.38;;;14.55;;
18689;SDS011;9782;52.930;15.562;2022-09-20T17:38:31;16.80;;;14.05;;
18689;SDS011;9782;52.930;15.562;2022-09-20T17:41:00;16.02;;;13.95;;
18689;SDS011;9782;52.930;15.562;2022-09-20T17:43:30;13.38;;;12.05;;
18689;SDS011;9782;52.930;15.562;2022-09-20T17:46:05;17.67;;;14.30;;
18689;SDS011;9782;52.930;15.562;2022-09-20T17:48:35;21.35;;;15.57;;
18689;SDS011;9782;52.930;15.562;2022-09-20T17:51:03;21.73;;;15.80;;
18689;SDS011;9782;52.930;15.562;2022-09-20T17:53:31;18.80;;;14.70;;
18689;SDS011;9782;52.930;15.562;2022-09-20T17:55:59;16.67;;;13.73;;
18689;SDS011;9782;52.930;15.562;2022-09-20T17:58:27;17.08;;;14.18;;
18689;SDS011;9782;52.930;15.562;2022-09-20T18:01:00;23.98;;;16.33;;
18689;SDS011;9782;52.930;15.562;2022-09-20T18:03:32;23.13;;;16.27;;
18689;SDS011;9782;52.930;15.562;2022-09-20T18:06:10;23.52;;;16.25;;
18689;SDS011;9782;52.930;15.562;2022-09-20T18:08:39;24.80;;;17.13;;
18689;SDS011;9782;52.930;15.562;2022-09-20T18:11:06;22.23;;;15.73;;
18689;SDS011;9782;52.930;15.562;2022-09-20T18:13:34;16.52;;;14.10;;
18689;SDS011;9782;52.930;15.562;2022-09-20T18:16:02;18.45;;;14.73;;
18689;SDS011;9782;52.930;15.562;2022-09-20T18:18:32;16.35;;;13.98;;
18689;SDS011;9782;52.930;15.562;2022-09-20T18:20:59;16.27;;;14.25;;
18689;SDS011;9782;52.930;15.562;2022-09-20T18:23:26;20.38;;;15.23;;
18689;SDS011;9782;52.930;15.562;2022-09-20T18:25:54;19.67;;;15.00;;
18689;SDS011;9782;52.930;15.562;2022-09-20T18:28:38;20.95;;;15.65;;
18689;SDS011;9782;52.930;15.562;2022-09-20T18:31:05;18.08;;;14.50;;
18689;SDS011;9782;52.930;15.562;2022-09-20T18:33:34;22.38;;;16.30;;
18689;SDS011;9782;52.930;15.562;2022-09-20T18:36:02;16.73;;;14.18;;
18689;SDS011;9782;52.930;15.562;2022-09-20T18:38:31;13.98;;;12.57;;
18689;SDS011;9782;52.930;15.562;2022-09-20T18:40:58;15.10;;;13.55;;
18689;SDS011;9782;52.930;15.562;2022-09-20T18:43:27;21.30;;;15.63;;